sensor_id;sensor_type;location;lat;lon;timestamp;P1;durP1;ratioP1;P2;durP2;ratioP2
46755;SDS011;32506;52.826;-1.192;2023-04-24T00:01:48;8.68;;;2.70;;
46755;SDS011;32506;52.826;-1.192;2023-04-24T00:04:14;8.52;;;3.75;;
46755;SDS011;32506;52.826;-1.192;2023-04-24T00:06:41;6.25;;;2.47;;
46755;SDS011;32506;52.826;-1.192;2023-04-24T00:09:08;7.55;;;2.30;;
46755;SDS011;32506;52.826;-1.192;2023-04-24T00:11:36;6.35;;;2.20;;
46755;SDS011;32506;52.826;-1.192;2023-04-24T00:14:02;6.75;;;2.00;;
46755;SDS011;32506;52.826;-1.192;2023-04-24T00:16:27;5.13;;;1.80;;
46755;SDS011;32506;52.826;-1.192;2023-04-24T00:18:53;6.43;;;2.22;;
46755;SDS011;32506;52.826;-1.192;2023-04-24T00:21:19;5.55;;;1.70;;
46755;SDS011;32506;52.826;-1.192;2023-04-24T00:23:45;7.63;;;2.28;;
46755;SDS011;32506;52.826;-1.192;2023-04-24T00:26:11;6.93;;;1.92;;
46755;SDS011;32506;52.826;-1.192;2023-04-24T00:28:36;6.65;;;2.22;;
46755;SDS011;32506;52.826;-1.192;2023-04-24T00:31:02;6.95;;;1.83;;
46755;SDS011;32506;52.826;-1.192;2023-04-24T00:33:28;6.75;;;1.90;;
46755;SDS011;32506;52.826;-1.192;2023-04-24T00:35:53;6.53;;;1.95;;
46755;SDS011;32506;52.826;-1.192;2023-04-24T00:38:18;5.90;;;1.88;;
46755;SDS011;32506;52.826;-1.192;2023-04-24T00:40:44;7.88;;;1.73;;
46755;SDS011;32506;52.826;-1.192;2023-04-24T00:43:10;4.88;;;1.77;;
46755;SDS011;32506;52.826;-1.192;2023-04-24T00:45:36;6.80;;;2.08;;
46755;SDS011;32506;52.826;-1.192;2023-04-24T00:48:02;4.47;;;1.38;;
46755;SDS011;32506;52.826;-1.192;2023-04-24T00:50:28;5.82;;;1.67;;
46755;SDS011;32506;52.826;-1.192;2023-04-24T00:52:55;8.10;;;1.73;;
46755;SDS011;32506;52.826;-1.192;2023-04-24T00:55:21;4.50;;;1.60;;
46755;SDS011;32506;52.826;-1.192;2023-04-24T00:57:47;8.48;;;2.80;;
46755;SDS011;32506;52.826;-1.192;2023-04-24T01:00:14;5.90;;;2.00;;
46755;SDS011;32506;52.826;-1.192;2023-04-24T01:02:40;5.82;;;1.30;;
46755;SDS011;32506;52.826;-1.192;2023-04-24T01:05:10;6.50;;;1.70;;
46755;SDS011;32506;52.826;-1.192;2023-04-24T01:07:37;5.30;;;1.60;;
46755;SDS011;32506;52.826;-1.192;2023-04-24T01:10:04;5.45;;;1.75;;
46755;SDS011;32506;52.826;-1.192;2023-04-24T01:12:30;6.50;;;1.58;;
46755;SDS011;32506;52.826;-1.192;2023-04-24T01:14:57;6.53;;;1.60;;
46755;SDS011;32506;52.826;-1.192;2023-04-24T01:17:22;8.43;;;1.63;;
46755;SDS011;32506;52.826;-1.192;2023-04-24T01:19:48;6.97;;;1.55;;
46755;SDS011;32506;52.826;-1.192;2023-04-24T01:22:14;6.57;;;1.90;;
46755;SDS011;32506;52.826;-1.192;2023-04-24T01:24:41;7.10;;;1.50;;
46755;SDS011;32506;52.826;-1.192;2023-04-24T01:27:07;4.80;;;1.52;;
46755;SDS011;32506;52.826;-1.192;2023-04-24T01:29:34;5.15;;;1.38;;
46755;SDS011;32506;52.826;-1.192;2023-04-24T01:32:00;7.40;;;1.70;;
46755;SDS011;32506;52.826;-1.192;2023-04-24T01:34:26;6.93;;;1.48;;
46755;SDS011;32506;52.826;-1.192;2023-04-24T01:36:51;6.10;;;1.35;;
46755;SDS011;32506;52.826;-1.192;2023-04-24T01:39:17;8.57;;;1.80;;
46755;SDS011;32506;52.826;-1.192;2023-04-24T01:41:42;5.15;;;1.50;;
46755;SDS011;32506;52.826;-1.192;2023-04-24T01:44:08;6.15;;;1.60;;
46755;SDS011;32506;52.826;-1.192;2023-04-24T01:46:33;4.03;;;1.30;;
46755;SDS011;32506;52.826;-1.192;2023-04-24T01:49:00;2.65;;;1.10;;
46755;SDS011;32506;52.826;-1.192;2023-04-24T01:51:26;5.07;;;1.27;;
46755;SDS011;32506;52.826;-1.192;2023-04-24T01:53:52;4.95;;;1.52;;
46755;SDS011;32506;52.826;-1.192;2023-04-24T01:56:19;7.43;;;1.70;;
46755;SDS011;32506;52.826;-1.192;2023-04-24T01:58:45;5.53;;;1.77;;
46755;SDS011;32506;52.826;-1.192;2023-04-24T02:01:14;9.55;;;1.92;;
46755;SDS011;32506;52.826;-1.192;2023-04-24T02:03:42;6.03;;;1.45;;
46755;SDS011;32506;52.826;-1.192;2023-04-24T02:06:08;4.90;;;1.48;;
46755;SDS011;32506;52.826;-1.192;2023-04-24T02:08:33;7.07;;;1.50;;
46755;SDS011;32506;52.826;-1.192;2023-04-24T02:10:59;4.38;;;1.33;;
46755;SDS011;32506;52.826;-1.192;2023-04-24T02:13:26;4.80;;;1.10;;
46755;SDS011;32506;52.826;-1.192;2023-04-24T02:15:51;4.13;;;1.10;;
46755;SDS011;32506;52.826;-1.192;2023-04-24T02:18:17;4.78;;;1.33;;
46755;SDS011;32506;52.826;-1.192;2023-04-24T02:20:42;6.97;;;1.65;;
46755;SDS011;32506;52.826;-1.192;2023-04-24T02:23:07;5.32;;;1.30;;
46755;SDS011;32506;52.826;-1.192;2023-04-24T02:25:33;5.80;;;1.80;;
46755;SDS011;32506;52.826;-1.192;2023-04-24T02:27:59;6.90;;;1.98;;
46755;SDS011;32506;52.826;-1.192;2023-04-24T02:30:24;5.80;;;0.98;;
46755;SDS011;32506;52.826;-1.192;2023-04-24T02:32:50;4.05;;;0.90;;
46755;SDS011;32506;52.826;-1.192;2023-04-24T02:35:16;4.00;;;0.80;;
46755;SDS011;32506;52.826;-1.192;2023-04-24T02:37:41;5.00;;;1.10;;
46755;SDS011;32506;52.826;-1.192;2023-04-24T02:40:07;4.15;;;1.13;;
46755;SDS011;32506;52.826;-1.192;2023-04-24T02:42:33;3.75;;;1.20;;
46755;SDS011;32506;52.826;-1.192;2023-04-24T02:44:59;3.30;;;1.10;;
46755;SDS011;32506;52.826;-1.192;2023-04-24T02:47:24;3.75;;;0.85;;
46755;SDS011;32506;52.826;-1.192;2023-04-24T02:49:50;3.92;;;1.08;;
46755;SDS011;32506;52.826;-1.192;2023-04-24T02:52:15;3.05;;;1.40;;
46755;SDS011;32506;52.826;-1.192;2023-04-24T02:54:41;3.35;;;1.20;;
46755;SDS011;32506;52.826;-1.192;2023-04-24T02:57:07;5.78;;;1.55;;
46755;SDS011;32506;52.826;-1.192;2023-04-24T02:59:33;5.03;;;1.10;;
46755;SDS011;32506;52.826;-1.192;2023-04-24T03:01:59;2.78;;;1.27;;
46755;SDS011;32506;52.826;-1.192;2023-04-24T03:04:24;3.22;;;0.90;;
46755;SDS011;32506;52.826;-1.192;2023-04-24T03:06:50;2.25;;;1.30;;
46755;SDS011;32506;52.826;-1.192;2023-04-24T03:09:18;3.08;;;0.82;;
46755;SDS011;32506;52.826;-1.192;2023-04-24T03:11:43;3.05;;;1.15;;
46755;SDS011;32506;52.826;-1.192;2023-04-24T03:14:09;1.83;;;0.70;;
46755;SDS011;32506;52.826;-1.192;2023-04-24T03:16:34;3.10;;;1.02;;
46755;SDS011;32506;52.826;-1.192;2023-04-24T03:19:00;3.95;;;1.20;;
46755;SDS011;32506;52.826;-1.192;2023-04-24T03:21:25;4.63;;;0.80;;
46755;SDS011;32506;52.826;-1.192;2023-04-24T03:23:51;2.78;;;1.10;;
46755;SDS011;32506;52.826;-1.192;2023-04-24T03:26:17;2.28;;;0.77;;
46755;SDS011;32506;52.826;-1.192;2023-04-24T03:28:42;4.65;;;1.13;;
46755;SDS011;32506;52.826;-1.192;2023-04-24T03:31:08;2.33;;;0.70;;
46755;SDS011;32506;52.826;-1.192;2023-04-24T03:33:33;3.53;;;1.40;;
46755;SDS011;32506;52.826;-1.192;2023-04-24T03:35:58;4.63;;;1.05;;
46755;SDS011;32506;52.826;-1.192;2023-04-24T03:38:24;2.85;;;0.98;;
46755;SDS011;32506;52.826;-1.192;2023-04-24T03:40:49;4.75;;;1.60;;
46755;SDS011;32506;52.826;-1.192;2023-04-24T03:43:15;2.80;;;1.40;;
46755;SDS011;32506;52.826;-1.192;2023-04-24T03:45:40;3.92;;;1.02;;
46755;SDS011;32506;52.826;-1.192;2023-04-24T03:48:06;1.92;;;0.70;;
46755;SDS011;32506;52.826;-1.192;2023-04-24T03:50:32;3.95;;;1.77;;
46755;SDS011;32506;52.826;-1.192;2023-04-24T03:52:58;3.38;;;1.00;;
46755;SDS011;32506;52.826;-1.192;2023-04-24T03:55:23;3.97;;;1.20;;
46755;SDS011;32506;52.826;-1.192;2023-04-24T03:57:49;2.55;;;0.70;;
46755;SDS011;32506;52.826;-1.192;2023-04-24T04:00:14;2.08;;;0.95;;
46755;SDS011;32506;52.826;-1.192;2023-04-24T04:02:40;2.30;;;0.70;;
46755;SDS011;32506;52.826;-1.192;2023-04-24T04:05:06;2.78;;;0.77;;
46755;SDS011;32506;52.826;-1.192;2023-04-24T04:07:33;2.90;;;0.93;;
46755;SDS011;32506;52.826;-1.192;2023-04-24T04:09:58;2.55;;;0.80;;
46755;SDS011;32506;52.826;-1.192;2023-04-24T04:12:24;3.35;;;0.88;;
46755;SDS011;32506;52.826;-1.192;2023-04-24T04:14:49;3.05;;;0.82;;
46755;SDS011;32506;52.826;-1.192;2023-04-24T04:17:15;4.78;;;1.10;;
46755;SDS011;32506;52.826;-1.192;2023-04-24T04:19:40;4.18;;;1.40;;
46755;SDS011;32506;52.826;-1.192;2023-04-24T04:22:07;4.00;;;1.10;;
46755;SDS011;32506;52.826;-1.192;2023-04-24T04:24:33;3.95;;;1.00;;
46755;SDS011;32506;52.826;-1.192;2023-04-24T04:27:02;1.38;;;0.80;;
46755;SDS011;32506;52.826;-1.192;2023-04-24T04:29:29;4.05;;;1.27;;
46755;SDS011;32506;52.826;-1.192;2023-04-24T04:31:56;1.60;;;0.73;;
46755;SDS011;32506;52.826;-1.192;2023-04-24T04:34:22;2.30;;;1.50;;
46755;SDS011;32506;52.826;-1.192;2023-04-24T04:36:48;3.03;;;1.00;;
46755;SDS011;32506;52.826;-1.192;2023-04-24T04:39:13;3.55;;;0.85;;
46755;SDS011;32506;52.826;-1.192;2023-04-24T04:41:40;2.75;;;0.77;;
46755;SDS011;32506;52.826;-1.192;2023-04-24T04:44:06;2.55;;;0.70;;
46755;SDS011;32506;52.826;-1.192;2023-04-24T04:46:33;2.05;;;0.80;;
46755;SDS011;32506;52.826;-1.192;2023-04-24T04:49:00;1.95;;;0.73;;
46755;SDS011;32506;52.826;-1.192;2023-04-24T04:51:26;3.30;;;0.88;;
46755;SDS011;32506;52.826;-1.192;2023-04-24T04:53:52;3.63;;;1.17;;
46755;SDS011;32506;52.826;-1.192;2023-04-24T04:56:18;3.10;;;0.93;;
46755;SDS011;32506;52.826;-1.192;2023-04-24T04:58:43;1.63;;;0.80;;
46755;SDS011;32506;52.826;-1.192;2023-04-24T05:01:08;2.80;;;0.80;;
46755;SDS011;32506;52.826;-1.192;2023-04-24T05:03:34;2.90;;;0.90;;
46755;SDS011;32506;52.826;-1.192;2023-04-24T05:06:01;2.95;;;1.30;;
46755;SDS011;32506;52.826;-1.192;2023-04-24T05:08:27;1.95;;;0.80;;
46755;SDS011;32506;52.826;-1.192;2023-04-24T05:10:52;3.67;;;0.65;;
46755;SDS011;32506;52.826;-1.192;2023-04-24T05:13:18;4.70;;;0.88;;
46755;SDS011;32506;52.826;-1.192;2023-04-24T05:15:44;3.20;;;0.90;;
46755;SDS011;32506;52.826;-1.192;2023-04-24T05:18:09;3.83;;;1.15;;
46755;SDS011;32506;52.826;-1.192;2023-04-24T05:20:35;2.83;;;0.70;;
46755;SDS011;32506;52.826;-1.192;2023-04-24T05:23:00;2.03;;;0.73;;
46755;SDS011;32506;52.826;-1.192;2023-04-24T05:25:26;2.95;;;0.80;;
46755;SDS011;32506;52.826;-1.192;2023-04-24T05:27:51;1.70;;;0.70;;
46755;SDS011;32506;52.826;-1.192;2023-04-24T05:30:18;2.30;;;0.82;;
46755;SDS011;32506;52.826;-1.192;2023-04-24T05:32:44;1.80;;;0.55;;
46755;SDS011;32506;52.826;-1.192;2023-04-24T05:35:10;2.53;;;0.80;;
46755;SDS011;32506;52.826;-1.192;2023-04-24T05:37:35;3.55;;;1.25;;
46755;SDS011;32506;52.826;-1.192;2023-04-24T05:40:01;2.50;;;0.82;;
46755;SDS011;32506;52.826;-1.192;2023-04-24T05:42:26;0.77;;;0.50;;
46755;SDS011;32506;52.826;-1.192;2023-04-24T05:44:52;4.90;;;1.27;;
46755;SDS011;32506;52.826;-1.192;2023-04-24T05:47:19;2.63;;;1.10;;
46755;SDS011;32506;52.826;-1.192;2023-04-24T05:49:44;2.03;;;0.77;;
46755;SDS011;32506;52.826;-1.192;2023-04-24T05:52:09;3.03;;;0.80;;
46755;SDS011;32506;52.826;-1.192;2023-04-24T05:54:35;3.08;;;1.02;;
46755;SDS011;32506;52.826;-1.192;2023-04-24T05:57:00;2.35;;;0.60;;
46755;SDS011;32506;52.826;-1.192;2023-04-24T05:59:29;3.92;;;0.88;;
46755;SDS011;32506;52.826;-1.192;2023-04-24T06:01:55;3.15;;;1.02;;
46755;SDS011;32506;52.826;-1.192;2023-04-24T06:04:21;3.95;;;0.60;;
46755;SDS011;32506;52.826;-1.192;2023-04-24T06:06:46;3.55;;;0.80;;
46755;SDS011;32506;52.826;-1.192;2023-04-24T06:09:15;1.50;;;0.73;;
46755;SDS011;32506;52.826;-1.192;2023-04-24T06:11:42;4.28;;;0.95;;
46755;SDS011;32506;52.826;-1.192;2023-04-24T06:14:07;4.18;;;0.88;;
46755;SDS011;32506;52.826;-1.192;2023-04-24T06:16:32;1.85;;;0.57;;
46755;SDS011;32506;52.826;-1.192;2023-04-24T06:18:58;3.65;;;0.85;;
46755;SDS011;32506;52.826;-1.192;2023-04-24T06:21:23;2.00;;;0.65;;
46755;SDS011;32506;52.826;-1.192;2023-04-24T06:23:49;3.53;;;1.13;;
46755;SDS011;32506;52.826;-1.192;2023-04-24T06:26:15;3.50;;;0.70;;
46755;SDS011;32506;52.826;-1.192;2023-04-24T06:28:41;2.60;;;0.70;;
46755;SDS011;32506;52.826;-1.192;2023-04-24T06:31:06;2.55;;;0.60;;
46755;SDS011;32506;52.826;-1.192;2023-04-24T06:33:32;1.27;;;0.50;;
46755;SDS011;32506;52.826;-1.192;2023-04-24T06:35:57;2.45;;;0.60;;
46755;SDS011;32506;52.826;-1.192;2023-04-24T06:38:22;2.40;;;0.60;;
46755;SDS011;32506;52.826;-1.192;2023-04-24T06:40:48;3.42;;;1.42;;
46755;SDS011;32506;52.826;-1.192;2023-04-24T06:43:13;3.55;;;0.63;;
46755;SDS011;32506;52.826;-1.192;2023-04-24T06:45:39;4.15;;;0.70;;
46755;SDS011;32506;52.826;-1.192;2023-04-24T06:48:05;2.00;;;1.05;;
46755;SDS011;32506;52.826;-1.192;2023-04-24T06:50:30;2.25;;;0.60;;
46755;SDS011;32506;52.826;-1.192;2023-04-24T06:52:56;3.35;;;0.90;;
46755;SDS011;32506;52.826;-1.192;2023-04-24T06:55:21;1.52;;;0.50;;
46755;SDS011;32506;52.826;-1.192;2023-04-24T06:57:47;2.53;;;0.63;;
46755;SDS011;32506;52.826;-1.192;2023-04-24T07:00:12;2.10;;;0.60;;
46755;SDS011;32506;52.826;-1.192;2023-04-24T07:02:38;1.92;;;0.60;;
46755;SDS011;32506;52.826;-1.192;2023-04-24T07:05:04;1.63;;;0.40;;
46755;SDS011;32506;52.826;-1.192;2023-04-24T07:07:30;2.53;;;0.63;;
46755;SDS011;32506;52.826;-1.192;2023-04-24T07:09:56;5.18;;;0.90;;
46755;SDS011;32506;52.826;-1.192;2023-04-24T07:12:22;4.45;;;0.77;;
46755;SDS011;32506;52.826;-1.192;2023-04-24T07:14:48;3.95;;;0.70;;
46755;SDS011;32506;52.826;-1.192;2023-04-24T07:17:13;2.53;;;0.60;;
46755;SDS011;32506;52.826;-1.192;2023-04-24T07:19:39;4.93;;;0.88;;
46755;SDS011;32506;52.826;-1.192;2023-04-24T07:22:05;1.63;;;0.65;;
46755;SDS011;32506;52.826;-1.192;2023-04-24T07:24:31;2.58;;;0.75;;
46755;SDS011;32506;52.826;-1.192;2023-04-24T07:26:59;3.83;;;0.77;;
46755;SDS011;32506;52.826;-1.192;2023-04-24T07:29:26;4.00;;;0.80;;
46755;SDS011;32506;52.826;-1.192;2023-04-24T07:31:52;2.03;;;0.70;;
46755;SDS011;32506;52.826;-1.192;2023-04-24T07:34:18;2.25;;;0.70;;
46755;SDS011;32506;52.826;-1.192;2023-04-24T07:36:45;1.17;;;0.50;;
46755;SDS011;32506;52.826;-1.192;2023-04-24T07:39:11;2.08;;;0.70;;
46755;SDS011;32506;52.826;-1.192;2023-04-24T07:41:36;2.95;;;0.93;;
46755;SDS011;32506;52.826;-1.192;2023-04-24T07:44:01;3.70;;;1.02;;
46755;SDS011;32506;52.826;-1.192;2023-04-24T07:46:27;3.50;;;0.68;;
46755;SDS011;32506;52.826;-1.192;2023-04-24T07:48:54;3.83;;;0.88;;
46755;SDS011;32506;52.826;-1.192;2023-04-24T07:51:20;2.83;;;0.80;;
46755;SDS011;32506;52.826;-1.192;2023-04-24T07:53:45;4.95;;;0.93;;
46755;SDS011;32506;52.826;-1.192;2023-04-24T07:56:11;5.18;;;1.30;;
46755;SDS011;32506;52.826;-1.192;2023-04-24T07:58:36;6.15;;;1.33;;
46755;SDS011;32506;52.826;-1.192;2023-04-24T08:01:02;5.00;;;1.33;;
46755;SDS011;32506;52.826;-1.192;2023-04-24T08:03:27;3.72;;;1.13;;
46755;SDS011;32506;52.826;-1.192;2023-04-24T08:05:53;5.60;;;1.27;;
46755;SDS011;32506;52.826;-1.192;2023-04-24T08:08:20;4.55;;;0.90;;
46755;SDS011;32506;52.826;-1.192;2023-04-24T08:10:47;3.35;;;0.82;;
46755;SDS011;32506;52.826;-1.192;2023-04-24T08:13:12;6.47;;;1.20;;
46755;SDS011;32506;52.826;-1.192;2023-04-24T08:15:38;4.53;;;1.35;;
46755;SDS011;32506;52.826;-1.192;2023-04-24T08:18:03;4.70;;;1.20;;
46755;SDS011;32506;52.826;-1.192;2023-04-24T08:20:29;4.55;;;1.30;;
46755;SDS011;32506;52.826;-1.192;2023-04-24T08:22:55;7.45;;;1.48;;
46755;SDS011;32506;52.826;-1.192;2023-04-24T08:25:21;5.95;;;1.33;;
46755;SDS011;32506;52.826;-1.192;2023-04-24T08:27:48;4.40;;;1.20;;
46755;SDS011;32506;52.826;-1.192;2023-04-24T08:30:13;2.65;;;0.85;;
46755;SDS011;32506;52.826;-1.192;2023-04-24T08:32:39;5.05;;;1.63;;
46755;SDS011;32506;52.826;-1.192;2023-04-24T08:35:05;4.38;;;1.10;;
46755;SDS011;32506;52.826;-1.192;2023-04-24T08:37:31;5.20;;;1.10;;
46755;SDS011;32506;52.826;-1.192;2023-04-24T08:39:56;3.95;;;1.13;;
46755;SDS011;32506;52.826;-1.192;2023-04-24T08:42:21;4.30;;;1.20;;
46755;SDS011;32506;52.826;-1.192;2023-04-24T08:44:48;4.05;;;1.38;;
46755;SDS011;32506;52.826;-1.192;2023-04-24T08:47:14;5.90;;;1.35;;
46755;SDS011;32506;52.826;-1.192;2023-04-24T08:49:40;6.70;;;1.42;;
46755;SDS011;32506;52.826;-1.192;2023-04-24T08:52:07;5.75;;;1.52;;
46755;SDS011;32506;52.826;-1.192;2023-04-24T08:54:33;6.00;;;1.33;;
46755;SDS011;32506;52.826;-1.192;2023-04-24T08:57:00;3.83;;;0.98;;
46755;SDS011;32506;52.826;-1.192;2023-04-24T08:59:28;4.93;;;0.93;;
46755;SDS011;32506;52.826;-1.192;2023-04-24T09:01:57;6.60;;;1.48;;
46755;SDS011;32506;52.826;-1.192;2023-04-24T09:04:23;6.93;;;1.63;;
46755;SDS011;32506;52.826;-1.192;2023-04-24T09:06:50;5.13;;;1.38;;
46755;SDS011;32506;52.826;-1.192;2023-04-24T09:09:17;7.05;;;1.65;;
46755;SDS011;32506;52.826;-1.192;2023-04-24T09:11:45;8.00;;;1.40;;
46755;SDS011;32506;52.826;-1.192;2023-04-24T09:14:11;4.68;;;1.45;;
46755;SDS011;32506;52.826;-1.192;2023-04-24T09:16:37;5.68;;;1.60;;
46755;SDS011;32506;52.826;-1.192;2023-04-24T09:19:03;7.68;;;1.58;;
46755;SDS011;32506;52.826;-1.192;2023-04-24T09:21:32;5.40;;;1.45;;
46755;SDS011;32506;52.826;-1.192;2023-04-24T09:24:00;8.70;;;1.63;;
46755;SDS011;32506;52.826;-1.192;2023-04-24T09:26:31;4.78;;;1.60;;
46755;SDS011;32506;52.826;-1.192;2023-04-24T09:29:00;8.18;;;1.67;;
46755;SDS011;32506;52.826;-1.192;2023-04-24T09:31:27;4.15;;;1.90;;
46755;SDS011;32506;52.826;-1.192;2023-04-24T09:34:00;4.90;;;1.50;;
46755;SDS011;32506;52.826;-1.192;2023-04-24T09:36:37;5.47;;;1.20;;
46755;SDS011;32506;52.826;-1.192;2023-04-24T09:39:06;4.75;;;2.05;;
46755;SDS011;32506;52.826;-1.192;2023-04-24T09:44:12;7.28;;;1.50;;
46755;SDS011;32506;52.826;-1.192;2023-04-24T09:46:40;7.03;;;1.42;;
46755;SDS011;32506;52.826;-1.192;2023-04-24T09:49:07;5.20;;;1.30;;
46755;SDS011;32506;52.826;-1.192;2023-04-24T09:51:40;6.22;;;2.15;;
46755;SDS011;32506;52.826;-1.192;2023-04-24T09:54:16;4.35;;;1.63;;
46755;SDS011;32506;52.826;-1.192;2023-04-24T09:56:45;5.55;;;1.70;;
46755;SDS011;32506;52.826;-1.192;2023-04-24T09:59:12;7.15;;;1.40;;
46755;SDS011;32506;52.826;-1.192;2023-04-24T10:01:42;8.85;;;1.85;;
46755;SDS011;32506;52.826;-1.192;2023-04-24T10:04:22;6.75;;;1.77;;
46755;SDS011;32506;52.826;-1.192;2023-04-24T10:06:49;9.40;;;2.30;;
46755;SDS011;32506;52.826;-1.192;2023-04-24T10:09:17;6.82;;;1.77;;
46755;SDS011;32506;52.826;-1.192;2023-04-24T10:11:47;10.20;;;1.92;;
46755;SDS011;32506;52.826;-1.192;2023-04-24T10:14:14;6.32;;;1.98;;
46755;SDS011;32506;52.826;-1.192;2023-04-24T10:16:51;6.53;;;1.73;;
46755;SDS011;32506;52.826;-1.192;2023-04-24T10:19:18;7.38;;;2.05;;
46755;SDS011;32506;52.826;-1.192;2023-04-24T10:21:45;8.43;;;1.92;;
46755;SDS011;32506;52.826;-1.192;2023-04-24T10:24:14;8.60;;;1.90;;
46755;SDS011;32506;52.826;-1.192;2023-04-24T10:26:41;7.25;;;1.65;;
46755;SDS011;32506;52.826;-1.192;2023-04-24T10:29:08;14.50;;;1.95;;
46755;SDS011;32506;52.826;-1.192;2023-04-24T10:31:37;8.00;;;1.95;;
46755;SDS011;32506;52.826;-1.192;2023-04-24T10:34:04;11.45;;;1.80;;
46755;SDS011;32506;52.826;-1.192;2023-04-24T10:36:30;5.85;;;1.20;;
46755;SDS011;32506;52.826;-1.192;2023-04-24T10:38:58;9.32;;;1.83;;
46755;SDS011;32506;52.826;-1.192;2023-04-24T10:41:25;16.85;;;2.03;;
46755;SDS011;32506;52.826;-1.192;2023-04-24T10:44:04;9.27;;;1.80;;
46755;SDS011;32506;52.826;-1.192;2023-04-24T10:46:31;7.15;;;2.05;;
46755;SDS011;32506;52.826;-1.192;2023-04-24T10:52:18;7.75;;;1.85;;
46755;SDS011;32506;52.826;-1.192;2023-04-24T10:54:44;7.65;;;1.50;;
46755;SDS011;32506;52.826;-1.192;2023-04-24T10:59:43;9.35;;;2.00;;
46755;SDS011;32506;52.826;-1.192;2023-04-24T11:02:09;7.38;;;2.13;;
46755;SDS011;32506;52.826;-1.192;2023-04-24T11:04:35;6.07;;;1.75;;
46755;SDS011;32506;52.826;-1.192;2023-04-24T11:07:02;13.82;;;1.85;;
46755;SDS011;32506;52.826;-1.192;2023-04-24T11:09:29;7.35;;;1.50;;
46755;SDS011;32506;52.826;-1.192;2023-04-24T11:12:03;6.93;;;1.65;;
46755;SDS011;32506;52.826;-1.192;2023-04-24T11:17:35;9.63;;;1.80;;
46755;SDS011;32506;52.826;-1.192;2023-04-24T11:22:35;4.40;;;1.60;;
46755;SDS011;32506;52.826;-1.192;2023-04-24T11:25:05;8.35;;;2.05;;
46755;SDS011;32506;52.826;-1.192;2023-04-24T11:27:34;6.80;;;1.65;;
46755;SDS011;32506;52.826;-1.192;2023-04-24T11:30:04;4.18;;;1.17;;
46755;SDS011;32506;52.826;-1.192;2023-04-24T11:32:38;5.43;;;1.52;;
46755;SDS011;32506;52.826;-1.192;2023-04-24T11:40:01;6.32;;;1.70;;
46755;SDS011;32506;52.826;-1.192;2023-04-24T11:42:27;6.03;;;1.38;;
46755;SDS011;32506;52.826;-1.192;2023-04-24T11:44:54;7.68;;;2.22;;
46755;SDS011;32506;52.826;-1.192;2023-04-24T11:47:29;6.85;;;1.50;;
46755;SDS011;32506;52.826;-1.192;2023-04-24T11:49:58;4.75;;;1.13;;
46755;SDS011;32506;52.826;-1.192;2023-04-24T11:52:24;6.47;;;1.55;;
46755;SDS011;32506;52.826;-1.192;2023-04-24T11:54:49;8.57;;;1.70;;
46755;SDS011;32506;52.826;-1.192;2023-04-24T11:57:15;7.63;;;1.55;;
46755;SDS011;32506;52.826;-1.192;2023-04-24T11:59:41;4.93;;;1.90;;
46755;SDS011;32506;52.826;-1.192;2023-04-24T12:02:07;7.03;;;1.42;;
46755;SDS011;32506;52.826;-1.192;2023-04-24T12:04:39;6.18;;;1.40;;
46755;SDS011;32506;52.826;-1.192;2023-04-24T12:07:06;7.57;;;1.83;;
46755;SDS011;32506;52.826;-1.192;2023-04-24T12:12:19;6.93;;;1.50;;
46755;SDS011;32506;52.826;-1.192;2023-04-24T12:17:14;8.27;;;1.77;;
46755;SDS011;32506;52.826;-1.192;2023-04-24T12:19:47;6.43;;;1.60;;
46755;SDS011;32506;52.826;-1.192;2023-04-24T12:22:13;5.85;;;1.67;;
46755;SDS011;32506;52.826;-1.192;2023-04-24T12:27:33;8.95;;;2.10;;
46755;SDS011;32506;52.826;-1.192;2023-04-24T12:29:59;8.20;;;1.67;;
46755;SDS011;32506;52.826;-1.192;2023-04-24T12:32:27;12.30;;;2.38;;
46755;SDS011;32506;52.826;-1.192;2023-04-24T12:34:53;8.43;;;2.15;;
46755;SDS011;32506;52.826;-1.192;2023-04-24T12:37:20;8.32;;;1.70;;
46755;SDS011;32506;52.826;-1.192;2023-04-24T12:39:58;5.93;;;1.70;;
46755;SDS011;32506;52.826;-1.192;2023-04-24T12:42:35;10.23;;;2.38;;
46755;SDS011;32506;52.826;-1.192;2023-04-24T12:45:06;9.68;;;1.52;;
46755;SDS011;32506;52.826;-1.192;2023-04-24T12:47:33;6.35;;;1.65;;
46755;SDS011;32506;52.826;-1.192;2023-04-24T12:49:59;6.55;;;1.50;;
46755;SDS011;32506;52.826;-1.192;2023-04-24T12:52:26;6.82;;;1.80;;
46755;SDS011;32506;52.826;-1.192;2023-04-24T12:54:54;7.00;;;1.50;;
46755;SDS011;32506;52.826;-1.192;2023-04-24T12:57:20;6.80;;;1.88;;
46755;SDS011;32506;52.826;-1.192;2023-04-24T12:59:47;6.97;;;1.90;;
46755;SDS011;32506;52.826;-1.192;2023-04-24T13:02:12;7.85;;;1.65;;
46755;SDS011;32506;52.826;-1.192;2023-04-24T13:04:38;7.10;;;2.20;;
46755;SDS011;32506;52.826;-1.192;2023-04-24T13:07:04;8.60;;;1.85;;
46755;SDS011;32506;52.826;-1.192;2023-04-24T13:09:30;10.30;;;1.98;;
46755;SDS011;32506;52.826;-1.192;2023-04-24T13:11:56;6.55;;;1.63;;
46755;SDS011;32506;52.826;-1.192;2023-04-24T13:14:22;5.22;;;2.33;;
46755;SDS011;32506;52.826;-1.192;2023-04-24T13:16:48;11.32;;;2.33;;
46755;SDS011;32506;52.826;-1.192;2023-04-24T13:19:14;6.68;;;1.65;;
46755;SDS011;32506;52.826;-1.192;2023-04-24T13:21:40;4.85;;;1.50;;
46755;SDS011;32506;52.826;-1.192;2023-04-24T13:24:05;7.30;;;1.67;;
46755;SDS011;32506;52.826;-1.192;2023-04-24T13:26:33;9.18;;;1.95;;
46755;SDS011;32506;52.826;-1.192;2023-04-24T13:28:58;6.60;;;1.40;;
46755;SDS011;32506;52.826;-1.192;2023-04-24T13:31:24;6.07;;;2.03;;
46755;SDS011;32506;52.826;-1.192;2023-04-24T13:33:49;4.50;;;1.45;;
46755;SDS011;32506;52.826;-1.192;2023-04-24T13:36:15;5.88;;;2.05;;
46755;SDS011;32506;52.826;-1.192;2023-04-24T13:38:42;9.98;;;2.45;;
46755;SDS011;32506;52.826;-1.192;2023-04-24T13:41:08;6.95;;;1.90;;
46755;SDS011;32506;52.826;-1.192;2023-04-24T13:43:34;7.95;;;1.75;;
46755;SDS011;32506;52.826;-1.192;2023-04-24T13:45:59;6.80;;;1.83;;
46755;SDS011;32506;52.826;-1.192;2023-04-24T13:48:27;8.43;;;2.00;;
46755;SDS011;32506;52.826;-1.192;2023-04-24T13:50:53;9.60;;;3.22;;
46755;SDS011;32506;52.826;-1.192;2023-04-24T13:53:18;6.55;;;2.03;;
46755;SDS011;32506;52.826;-1.192;2023-04-24T13:55:44;9.48;;;2.75;;
46755;SDS011;32506;52.826;-1.192;2023-04-24T13:58:09;7.50;;;2.35;;
46755;SDS011;32506;52.826;-1.192;2023-04-24T14:00:35;12.23;;;2.45;;
46755;SDS011;32506;52.826;-1.192;2023-04-24T14:03:01;9.07;;;2.10;;
46755;SDS011;32506;52.826;-1.192;2023-04-24T14:05:26;10.43;;;2.42;;
46755;SDS011;32506;52.826;-1.192;2023-04-24T14:07:51;10.52;;;2.40;;
46755;SDS011;32506;52.826;-1.192;2023-04-24T14:10:17;9.13;;;2.45;;
46755;SDS011;32506;52.826;-1.192;2023-04-24T14:12:42;11.23;;;2.55;;
46755;SDS011;32506;52.826;-1.192;2023-04-24T14:15:08;15.63;;;3.13;;
46755;SDS011;32506;52.826;-1.192;2023-04-24T14:17:34;14.27;;;3.38;;
46755;SDS011;32506;52.826;-1.192;2023-04-24T14:20:00;9.02;;;2.22;;
46755;SDS011;32506;52.826;-1.192;2023-04-24T14:22:25;13.85;;;2.95;;
46755;SDS011;32506;52.826;-1.192;2023-04-24T14:24:51;9.05;;;2.08;;
46755;SDS011;32506;52.826;-1.192;2023-04-24T14:27:17;10.68;;;2.47;;
46755;SDS011;32506;52.826;-1.192;2023-04-24T14:29:42;9.35;;;2.53;;
46755;SDS011;32506;52.826;-1.192;2023-04-24T14:32:07;9.60;;;2.42;;
46755;SDS011;32506;52.826;-1.192;2023-04-24T14:34:34;8.65;;;2.72;;
46755;SDS011;32506;52.826;-1.192;2023-04-24T14:36:59;9.95;;;3.05;;
46755;SDS011;32506;52.826;-1.192;2023-04-24T14:39:25;11.05;;;2.67;;
46755;SDS011;32506;52.826;-1.192;2023-04-24T14:41:51;7.63;;;2.60;;
46755;SDS011;32506;52.826;-1.192;2023-04-24T14:44:16;7.47;;;2.10;;
46755;SDS011;32506;52.826;-1.192;2023-04-24T14:46:42;7.82;;;2.05;;
46755;SDS011;32506;52.826;-1.192;2023-04-24T14:49:08;6.53;;;1.80;;
46755;SDS011;32506;52.826;-1.192;2023-04-24T14:51:35;7.45;;;2.08;;
46755;SDS011;32506;52.826;-1.192;2023-04-24T14:54:01;6.63;;;2.08;;
46755;SDS011;32506;52.826;-1.192;2023-04-24T14:56:26;6.95;;;1.52;;